Terminal Aerodrome Forecast
Issued by NWS Billings, MT

Home | Current Version | Previous Version | Graphics & Text | Print | Product List | Glossary On
Versions: 1 2 3 4 5 6 7 8 9 10 11 12 13 14 15
000
FTUS45 KBYZ 131132
TAFMLS
TAF
KMLS 131132Z 1312/1412 36010KT P6SM OVC025
     FM131630 36012KT P6SM FEW030 SCT060 BKN100
     FM140300 33007KT P6SM FEW090 SCT250=

USA.gov is the U.S. government's official web portal to all federal, state and local government web resources and services.